sensor_id;sensor_type;location;lat;lon;timestamp;P1;durP1;ratioP1;P2;durP2;ratioP2
75772;SDS011;64381;0.000;0.000;2022-10-24T00:02:12;3.30;;;1.60;;
75772;SDS011;64381;0.000;0.000;2022-10-24T00:04:38;4.17;;;2.20;;
75772;SDS011;64381;0.000;0.000;2022-10-24T00:07:05;3.88;;;1.70;;
75772;SDS011;64381;0.000;0.000;2022-10-24T00:09:31;3.73;;;1.80;;
75772;SDS011;64381;0.000;0.000;2022-10-24T00:11:57;3.58;;;1.80;;
75772;SDS011;64381;0.000;0.000;2022-10-24T00:14:23;4.47;;;1.67;;
75772;SDS011;64381;0.000;0.000;2022-10-24T00:16:48;3.95;;;1.80;;
75772;SDS011;64381;0.000;0.000;2022-10-24T00:19:13;3.67;;;1.80;;
75772;SDS011;64381;0.000;0.000;2022-10-24T00:21:39;3.80;;;1.73;;
75772;SDS011;64381;0.000;0.000;2022-10-24T00:24:04;4.20;;;1.90;;
75772;SDS011;64381;0.000;0.000;2022-10-24T00:26:30;3.47;;;1.80;;
75772;SDS011;64381;0.000;0.000;2022-10-24T00:28:56;4.00;;;2.10;;
75772;SDS011;64381;0.000;0.000;2022-10-24T00:31:21;3.83;;;1.80;;
75772;SDS011;64381;0.000;0.000;2022-10-24T00:33:46;3.00;;;1.60;;
75772;SDS011;64381;0.000;0.000;2022-10-24T00:36:13;3.63;;;1.83;;
75772;SDS011;64381;0.000;0.000;2022-10-24T00:38:41;4.72;;;1.60;;
75772;SDS011;64381;0.000;0.000;2022-10-24T00:41:06;3.53;;;1.70;;
75772;SDS011;64381;0.000;0.000;2022-10-24T00:43:31;3.45;;;1.85;;
75772;SDS011;64381;0.000;0.000;2022-10-24T00:45:58;3.80;;;1.93;;
75772;SDS011;64381;0.000;0.000;2022-10-24T00:51:05;3.90;;;1.70;;
75772;SDS011;64381;0.000;0.000;2022-10-24T00:53:37;3.00;;;1.60;;
75772;SDS011;64381;0.000;0.000;2022-10-24T00:56:08;3.70;;;1.70;;
75772;SDS011;64381;0.000;0.000;2022-10-24T00:58:36;3.65;;;1.73;;
75772;SDS011;64381;0.000;0.000;2022-10-24T01:01:03;3.90;;;1.85;;
75772;SDS011;64381;0.000;0.000;2022-10-24T01:03:28;3.53;;;1.80;;
75772;SDS011;64381;0.000;0.000;2022-10-24T01:08:38;3.72;;;1.80;;
75772;SDS011;64381;0.000;0.000;2022-10-24T01:11:17;4.15;;;1.70;;
75772;SDS011;64381;0.000;0.000;2022-10-24T01:22:13;4.15;;;1.90;;
75772;SDS011;64381;0.000;0.000;2022-10-24T01:30:11;3.20;;;1.50;;
75772;SDS011;64381;0.000;0.000;2022-10-24T01:32:50;3.63;;;1.70;;
75772;SDS011;64381;0.000;0.000;2022-10-24T01:35:33;3.58;;;1.60;;
75772;SDS011;64381;0.000;0.000;2022-10-24T01:40:43;3.10;;;1.60;;
75772;SDS011;64381;0.000;0.000;2022-10-24T01:43:13;3.63;;;1.60;;
75772;SDS011;64381;0.000;0.000;2022-10-24T01:45:43;3.67;;;1.60;;
75772;SDS011;64381;0.000;0.000;2022-10-24T01:48:14;3.55;;;1.73;;
75772;SDS011;64381;0.000;0.000;2022-10-24T01:50:44;4.25;;;1.90;;
75772;SDS011;64381;0.000;0.000;2022-10-24T01:53:11;3.50;;;1.60;;
75772;SDS011;64381;0.000;0.000;2022-10-24T01:55:37;4.05;;;1.67;;
75772;SDS011;64381;0.000;0.000;2022-10-24T01:58:05;3.23;;;1.50;;
75772;SDS011;64381;0.000;0.000;2022-10-24T02:00:31;3.65;;;1.75;;
75772;SDS011;64381;0.000;0.000;2022-10-24T02:02:58;3.70;;;1.60;;
75772;SDS011;64381;0.000;0.000;2022-10-24T02:05:29;3.20;;;1.60;;
75772;SDS011;64381;0.000;0.000;2022-10-24T02:08:00;3.35;;;1.50;;
75772;SDS011;64381;0.000;0.000;2022-10-24T02:10:39;3.80;;;1.85;;
75772;SDS011;64381;0.000;0.000;2022-10-24T02:13:12;4.33;;;1.50;;
75772;SDS011;64381;0.000;0.000;2022-10-24T02:15:42;3.53;;;1.55;;
75772;SDS011;64381;0.000;0.000;2022-10-24T02:18:12;4.10;;;1.88;;
75772;SDS011;64381;0.000;0.000;2022-10-24T02:20:44;3.20;;;1.55;;
75772;SDS011;64381;0.000;0.000;2022-10-24T02:23:17;3.35;;;1.70;;
75772;SDS011;64381;0.000;0.000;2022-10-24T02:25:49;3.57;;;1.50;;
75772;SDS011;64381;0.000;0.000;2022-10-24T02:28:19;3.30;;;1.50;;
75772;SDS011;64381;0.000;0.000;2022-10-24T02:30:55;3.33;;;1.73;;
75772;SDS011;64381;0.000;0.000;2022-10-24T02:33:25;3.95;;;1.60;;
75772;SDS011;64381;0.000;0.000;2022-10-24T02:35:52;3.47;;;1.45;;
75772;SDS011;64381;0.000;0.000;2022-10-24T02:38:21;3.57;;;1.63;;
75772;SDS011;64381;0.000;0.000;2022-10-24T02:40:50;2.97;;;1.40;;
75772;SDS011;64381;0.000;0.000;2022-10-24T02:43:17;3.30;;;1.50;;
75772;SDS011;64381;0.000;0.000;2022-10-24T02:45:45;3.40;;;1.50;;
75772;SDS011;64381;0.000;0.000;2022-10-24T02:48:11;3.30;;;1.60;;
75772;SDS011;64381;0.000;0.000;2022-10-24T02:50:39;3.30;;;1.40;;
75772;SDS011;64381;0.000;0.000;2022-10-24T02:53:06;3.42;;;1.52;;
75772;SDS011;64381;0.000;0.000;2022-10-24T02:55:34;3.20;;;1.50;;
75772;SDS011;64381;0.000;0.000;2022-10-24T02:57:59;3.20;;;1.43;;
75772;SDS011;64381;0.000;0.000;2022-10-24T03:00:24;3.27;;;1.70;;
75772;SDS011;64381;0.000;0.000;2022-10-24T03:02:49;3.17;;;1.57;;
75772;SDS011;64381;0.000;0.000;2022-10-24T03:05:14;3.37;;;1.53;;
75772;SDS011;64381;0.000;0.000;2022-10-24T03:07:40;3.67;;;1.57;;
75772;SDS011;64381;0.000;0.000;2022-10-24T03:10:05;2.90;;;1.50;;
75772;SDS011;64381;0.000;0.000;2022-10-24T03:12:31;3.10;;;1.60;;
75772;SDS011;64381;0.000;0.000;2022-10-24T03:14:56;3.10;;;1.50;;
75772;SDS011;64381;0.000;0.000;2022-10-24T03:17:21;3.67;;;1.60;;
75772;SDS011;64381;0.000;0.000;2022-10-24T03:19:46;3.10;;;1.60;;
75772;SDS011;64381;0.000;0.000;2022-10-24T03:22:11;3.80;;;1.53;;
75772;SDS011;64381;0.000;0.000;2022-10-24T03:24:37;3.13;;;1.50;;
75772;SDS011;64381;0.000;0.000;2022-10-24T03:27:02;3.67;;;1.70;;
75772;SDS011;64381;0.000;0.000;2022-10-24T03:29:27;3.30;;;1.80;;
75772;SDS011;64381;0.000;0.000;2022-10-24T03:31:52;3.50;;;1.70;;
75772;SDS011;64381;0.000;0.000;2022-10-24T03:34:18;3.10;;;1.60;;
75772;SDS011;64381;0.000;0.000;2022-10-24T03:36:43;3.30;;;1.60;;
75772;SDS011;64381;0.000;0.000;2022-10-24T03:39:08;3.87;;;1.60;;
75772;SDS011;64381;0.000;0.000;2022-10-24T03:41:33;3.30;;;1.58;;
75772;SDS011;64381;0.000;0.000;2022-10-24T03:43:59;3.40;;;1.50;;
75772;SDS011;64381;0.000;0.000;2022-10-24T03:46:24;3.53;;;1.43;;
75772;SDS011;64381;0.000;0.000;2022-10-24T03:48:49;3.43;;;1.70;;
75772;SDS011;64381;0.000;0.000;2022-10-24T03:51:14;3.10;;;1.60;;
75772;SDS011;64381;0.000;0.000;2022-10-24T03:53:40;3.23;;;1.60;;
75772;SDS011;64381;0.000;0.000;2022-10-24T03:56:05;3.97;;;1.63;;
75772;SDS011;64381;0.000;0.000;2022-10-24T03:58:31;3.17;;;1.33;;
75772;SDS011;64381;0.000;0.000;2022-10-24T04:00:56;2.97;;;1.50;;
75772;SDS011;64381;0.000;0.000;2022-10-24T04:03:21;3.60;;;1.60;;
75772;SDS011;64381;0.000;0.000;2022-10-24T04:05:47;3.10;;;1.60;;
75772;SDS011;64381;0.000;0.000;2022-10-24T04:08:12;3.83;;;1.40;;
75772;SDS011;64381;0.000;0.000;2022-10-24T04:10:37;3.27;;;1.40;;
75772;SDS011;64381;0.000;0.000;2022-10-24T04:13:02;3.27;;;1.60;;
75772;SDS011;64381;0.000;0.000;2022-10-24T04:15:27;2.90;;;1.50;;
75772;SDS011;64381;0.000;0.000;2022-10-24T04:17:53;2.93;;;1.37;;
75772;SDS011;64381;0.000;0.000;2022-10-24T04:20:18;3.13;;;1.60;;
75772;SDS011;64381;0.000;0.000;2022-10-24T04:22:43;3.30;;;1.47;;
75772;SDS011;64381;0.000;0.000;2022-10-24T04:25:09;4.07;;;1.57;;
75772;SDS011;64381;0.000;0.000;2022-10-24T04:27:34;4.03;;;1.60;;
75772;SDS011;64381;0.000;0.000;2022-10-24T04:29:59;3.40;;;1.80;;
75772;SDS011;64381;0.000;0.000;2022-10-24T04:35:00;3.42;;;1.70;;
75772;SDS011;64381;0.000;0.000;2022-10-24T04:37:25;2.90;;;1.50;;
75772;SDS011;64381;0.000;0.000;2022-10-24T04:39:51;3.53;;;1.60;;
75772;SDS011;64381;0.000;0.000;2022-10-24T04:42:16;3.43;;;1.40;;
75772;SDS011;64381;0.000;0.000;2022-10-24T04:44:41;3.97;;;1.40;;
75772;SDS011;64381;0.000;0.000;2022-10-24T04:47:06;3.37;;;1.40;;
75772;SDS011;64381;0.000;0.000;2022-10-24T04:49:32;3.43;;;1.50;;
75772;SDS011;64381;0.000;0.000;2022-10-24T04:51:57;2.97;;;1.40;;
75772;SDS011;64381;0.000;0.000;2022-10-24T04:54:22;2.90;;;1.40;;
75772;SDS011;64381;0.000;0.000;2022-10-24T04:56:47;3.03;;;1.30;;
75772;SDS011;64381;0.000;0.000;2022-10-24T04:59:12;3.10;;;1.40;;
75772;SDS011;64381;0.000;0.000;2022-10-24T05:01:38;3.37;;;1.67;;
75772;SDS011;64381;0.000;0.000;2022-10-24T05:04:03;3.10;;;1.70;;
75772;SDS011;64381;0.000;0.000;2022-10-24T05:06:28;3.23;;;1.60;;
75772;SDS011;64381;0.000;0.000;2022-10-24T05:08:54;3.20;;;1.43;;
75772;SDS011;64381;0.000;0.000;2022-10-24T05:11:19;4.40;;;1.63;;
75772;SDS011;64381;0.000;0.000;2022-10-24T05:13:44;3.10;;;1.50;;
75772;SDS011;64381;0.000;0.000;2022-10-24T05:16:09;3.20;;;1.40;;
75772;SDS011;64381;0.000;0.000;2022-10-24T05:18:34;3.00;;;1.53;;
75772;SDS011;64381;0.000;0.000;2022-10-24T05:21:00;3.13;;;1.40;;
75772;SDS011;64381;0.000;0.000;2022-10-24T05:23:25;3.60;;;1.63;;
75772;SDS011;64381;0.000;0.000;2022-10-24T05:25:51;3.67;;;1.45;;
75772;SDS011;64381;0.000;0.000;2022-10-24T05:28:16;2.90;;;1.23;;
75772;SDS011;64381;0.000;0.000;2022-10-24T05:30:42;3.43;;;1.50;;
75772;SDS011;64381;0.000;0.000;2022-10-24T05:33:07;3.92;;;1.60;;
75772;SDS011;64381;0.000;0.000;2022-10-24T05:35:33;2.90;;;1.50;;
75772;SDS011;64381;0.000;0.000;2022-10-24T05:37:58;3.30;;;1.50;;
75772;SDS011;64381;0.000;0.000;2022-10-24T05:40:23;3.73;;;1.70;;
75772;SDS011;64381;0.000;0.000;2022-10-24T05:42:48;3.17;;;1.50;;
75772;SDS011;64381;0.000;0.000;2022-10-24T05:45:14;3.30;;;1.70;;
75772;SDS011;64381;0.000;0.000;2022-10-24T05:47:39;3.90;;;1.57;;
75772;SDS011;64381;0.000;0.000;2022-10-24T05:50:04;3.77;;;1.60;;
75772;SDS011;64381;0.000;0.000;2022-10-24T05:52:30;4.30;;;1.40;;
75772;SDS011;64381;0.000;0.000;2022-10-24T05:54:55;3.03;;;1.43;;
75772;SDS011;64381;0.000;0.000;2022-10-24T05:57:20;3.80;;;1.40;;
75772;SDS011;64381;0.000;0.000;2022-10-24T05:59:46;3.80;;;1.40;;
75772;SDS011;64381;0.000;0.000;2022-10-24T06:02:15;3.07;;;1.43;;
75772;SDS011;64381;0.000;0.000;2022-10-24T06:04:42;3.70;;;1.70;;
75772;SDS011;64381;0.000;0.000;2022-10-24T06:07:08;3.13;;;1.40;;
75772;SDS011;64381;0.000;0.000;2022-10-24T06:09:33;3.97;;;1.80;;
75772;SDS011;64381;0.000;0.000;2022-10-24T06:11:58;4.07;;;1.53;;
75772;SDS011;64381;0.000;0.000;2022-10-24T06:14:23;3.27;;;1.57;;
75772;SDS011;64381;0.000;0.000;2022-10-24T06:16:49;3.93;;;1.73;;
75772;SDS011;64381;0.000;0.000;2022-10-24T06:19:14;3.43;;;1.70;;
75772;SDS011;64381;0.000;0.000;2022-10-24T06:21:39;4.07;;;1.60;;
75772;SDS011;64381;0.000;0.000;2022-10-24T06:24:04;3.53;;;1.60;;
75772;SDS011;64381;0.000;0.000;2022-10-24T06:26:30;3.30;;;1.57;;
75772;SDS011;64381;0.000;0.000;2022-10-24T06:28:55;2.93;;;1.30;;
75772;SDS011;64381;0.000;0.000;2022-10-24T06:31:20;3.50;;;1.43;;
75772;SDS011;64381;0.000;0.000;2022-10-24T06:33:46;4.43;;;1.40;;
75772;SDS011;64381;0.000;0.000;2022-10-24T06:36:11;3.92;;;1.30;;
75772;SDS011;64381;0.000;0.000;2022-10-24T06:38:36;4.03;;;1.30;;
75772;SDS011;64381;0.000;0.000;2022-10-24T06:41:05;3.33;;;1.40;;
75772;SDS011;64381;0.000;0.000;2022-10-24T06:43:31;3.47;;;1.30;;
75772;SDS011;64381;0.000;0.000;2022-10-24T06:45:57;3.33;;;1.30;;
75772;SDS011;64381;0.000;0.000;2022-10-24T06:48:22;3.60;;;1.50;;
75772;SDS011;64381;0.000;0.000;2022-10-24T06:50:47;3.17;;;1.40;;
75772;SDS011;64381;0.000;0.000;2022-10-24T06:53:13;2.83;;;1.30;;
75772;SDS011;64381;0.000;0.000;2022-10-24T06:55:38;3.03;;;1.20;;
75772;SDS011;64381;0.000;0.000;2022-10-24T06:58:03;2.87;;;1.27;;
75772;SDS011;64381;0.000;0.000;2022-10-24T07:00:29;3.80;;;1.50;;
75772;SDS011;64381;0.000;0.000;2022-10-24T07:02:54;3.33;;;1.50;;
75772;SDS011;64381;0.000;0.000;2022-10-24T07:05:19;3.03;;;1.30;;
75772;SDS011;64381;0.000;0.000;2022-10-24T07:07:44;2.93;;;1.40;;
75772;SDS011;64381;0.000;0.000;2022-10-24T07:10:10;3.23;;;1.40;;
75772;SDS011;64381;0.000;0.000;2022-10-24T07:12:36;3.05;;;1.40;;
75772;SDS011;64381;0.000;0.000;2022-10-24T07:15:02;3.10;;;1.20;;
75772;SDS011;64381;0.000;0.000;2022-10-24T07:17:27;2.90;;;1.30;;
75772;SDS011;64381;0.000;0.000;2022-10-24T07:19:53;2.80;;;1.20;;
75772;SDS011;64381;0.000;0.000;2022-10-24T07:22:19;3.05;;;1.30;;
75772;SDS011;64381;0.000;0.000;2022-10-24T07:24:44;3.60;;;1.40;;
75772;SDS011;64381;0.000;0.000;2022-10-24T07:27:10;2.93;;;1.40;;
75772;SDS011;64381;0.000;0.000;2022-10-24T07:29:37;3.40;;;1.30;;
75772;SDS011;64381;0.000;0.000;2022-10-24T07:32:03;3.13;;;1.23;;
75772;SDS011;64381;0.000;0.000;2022-10-24T07:34:28;3.00;;;1.47;;
75772;SDS011;64381;0.000;0.000;2022-10-24T07:36:53;4.03;;;1.40;;
75772;SDS011;64381;0.000;0.000;2022-10-24T07:39:18;2.73;;;1.20;;
75772;SDS011;64381;0.000;0.000;2022-10-24T07:41:44;3.30;;;1.23;;
75772;SDS011;64381;0.000;0.000;2022-10-24T07:44:09;2.80;;;1.30;;
75772;SDS011;64381;0.000;0.000;2022-10-24T07:46:34;3.00;;;1.35;;
75772;SDS011;64381;0.000;0.000;2022-10-24T07:49:00;3.03;;;1.30;;
75772;SDS011;64381;0.000;0.000;2022-10-24T07:51:25;3.23;;;1.43;;
75772;SDS011;64381;0.000;0.000;2022-10-24T07:53:50;2.77;;;1.30;;
75772;SDS011;64381;0.000;0.000;2022-10-24T07:56:16;3.10;;;1.23;;
75772;SDS011;64381;0.000;0.000;2022-10-24T07:58:42;9.27;;;1.63;;
75772;SDS011;64381;0.000;0.000;2022-10-24T08:01:09;10.45;;;1.60;;
75772;SDS011;64381;0.000;0.000;2022-10-24T08:03:36;10.40;;;1.92;;
75772;SDS011;64381;0.000;0.000;2022-10-24T08:06:09;7.17;;;1.97;;
75772;SDS011;64381;0.000;0.000;2022-10-24T08:08:36;5.93;;;1.60;;
75772;SDS011;64381;0.000;0.000;2022-10-24T08:11:06;6.47;;;1.27;;
75772;SDS011;64381;0.000;0.000;2022-10-24T08:13:32;8.27;;;1.50;;
75772;SDS011;64381;0.000;0.000;2022-10-24T08:15:57;8.80;;;1.47;;
75772;SDS011;64381;0.000;0.000;2022-10-24T08:18:22;5.43;;;1.50;;
75772;SDS011;64381;0.000;0.000;2022-10-24T08:21:07;7.80;;;1.63;;
75772;SDS011;64381;0.000;0.000;2022-10-24T08:23:34;6.03;;;1.27;;
75772;SDS011;64381;0.000;0.000;2022-10-24T08:26:04;5.00;;;1.50;;
75772;SDS011;64381;0.000;0.000;2022-10-24T08:28:31;7.18;;;1.65;;
75772;SDS011;64381;0.000;0.000;2022-10-24T08:30:57;4.90;;;1.30;;
75772;SDS011;64381;0.000;0.000;2022-10-24T08:33:23;4.28;;;1.50;;
75772;SDS011;64381;0.000;0.000;2022-10-24T08:35:49;5.90;;;1.60;;
75772;SDS011;64381;0.000;0.000;2022-10-24T08:38:14;5.13;;;1.60;;
75772;SDS011;64381;0.000;0.000;2022-10-24T08:40:39;6.90;;;1.57;;
75772;SDS011;64381;0.000;0.000;2022-10-24T08:43:05;3.57;;;1.40;;
75772;SDS011;64381;0.000;0.000;2022-10-24T08:48:15;6.07;;;1.60;;
75772;SDS011;64381;0.000;0.000;2022-10-24T08:50:46;3.80;;;1.48;;
75772;SDS011;64381;0.000;0.000;2022-10-24T08:53:24;3.80;;;1.37;;
75772;SDS011;64381;0.000;0.000;2022-10-24T08:55:55;5.25;;;1.45;;
75772;SDS011;64381;0.000;0.000;2022-10-24T08:58:24;4.40;;;1.73;;
75772;SDS011;64381;0.000;0.000;2022-10-24T09:00:54;5.32;;;1.50;;
75772;SDS011;64381;0.000;0.000;2022-10-24T09:03:24;5.70;;;1.75;;
75772;SDS011;64381;0.000;0.000;2022-10-24T09:05:56;4.87;;;1.47;;
75772;SDS011;64381;0.000;0.000;2022-10-24T09:16:50;3.95;;;1.50;;
75772;SDS011;64381;0.000;0.000;2022-10-24T09:19:19;4.30;;;1.50;;
75772;SDS011;64381;0.000;0.000;2022-10-24T09:21:46;4.93;;;1.40;;
75772;SDS011;64381;0.000;0.000;2022-10-24T09:24:17;6.18;;;1.40;;
75772;SDS011;64381;0.000;0.000;2022-10-24T09:26:46;3.80;;;1.35;;
75772;SDS011;64381;0.000;0.000;2022-10-24T09:29:12;4.03;;;1.20;;
75772;SDS011;64381;0.000;0.000;2022-10-24T09:31:38;4.10;;;1.40;;
75772;SDS011;64381;0.000;0.000;2022-10-24T09:34:04;4.13;;;1.50;;
75772;SDS011;64381;0.000;0.000;2022-10-24T09:36:29;4.40;;;1.63;;
75772;SDS011;64381;0.000;0.000;2022-10-24T09:38:54;5.00;;;1.80;;
75772;SDS011;64381;0.000;0.000;2022-10-24T09:41:26;6.37;;;2.10;;
75772;SDS011;64381;0.000;0.000;2022-10-24T09:43:57;6.35;;;2.50;;
75772;SDS011;64381;0.000;0.000;2022-10-24T09:46:34;7.07;;;2.50;;
75772;SDS011;64381;0.000;0.000;2022-10-24T10:04:46;8.07;;;3.23;;
75772;SDS011;64381;0.000;0.000;2022-10-24T10:07:17;9.27;;;3.42;;
75772;SDS011;64381;0.000;0.000;2022-10-24T10:09:50;11.00;;;4.00;;
75772;SDS011;64381;0.000;0.000;2022-10-24T10:12:28;9.43;;;4.00;;
75772;SDS011;64381;0.000;0.000;2022-10-24T10:14:55;11.70;;;4.82;;
75772;SDS011;64381;0.000;0.000;2022-10-24T10:17:25;11.23;;;5.30;;
75772;SDS011;64381;0.000;0.000;2022-10-24T10:19:52;11.18;;;5.20;;
75772;SDS011;64381;0.000;0.000;2022-10-24T10:24:53;11.43;;;5.22;;
75772;SDS011;64381;0.000;0.000;2022-10-24T10:32:49;15.00;;;5.93;;
75772;SDS011;64381;0.000;0.000;2022-10-24T10:41:02;10.57;;;5.00;;
75772;SDS011;64381;0.000;0.000;2022-10-24T10:46:38;12.63;;;5.55;;
75772;SDS011;64381;0.000;0.000;2022-10-24T10:49:31;21.70;;;5.40;;
75772;SDS011;64381;0.000;0.000;2022-10-24T11:03:12;34.23;;;6.80;;
75772;SDS011;64381;0.000;0.000;2022-10-24T11:08:45;36.33;;;7.18;;
75772;SDS011;64381;0.000;0.000;2022-10-24T11:11:33;34.50;;;6.88;;
75772;SDS011;64381;0.000;0.000;2022-10-24T11:17:10;34.07;;;6.57;;
75772;SDS011;64381;0.000;0.000;2022-10-24T11:19:53;28.58;;;6.50;;
75772;SDS011;64381;0.000;0.000;2022-10-24T11:22:37;26.85;;;6.55;;
75772;SDS011;64381;0.000;0.000;2022-10-24T11:31:27;19.73;;;5.60;;
75772;SDS011;64381;0.000;0.000;2022-10-24T11:34:01;26.33;;;5.55;;
75772;SDS011;64381;0.000;0.000;2022-10-24T11:36:51;19.42;;;5.43;;
75772;SDS011;64381;0.000;0.000;2022-10-24T11:39:24;18.27;;;5.72;;
75772;SDS011;64381;0.000;0.000;2022-10-24T11:41:52;22.98;;;5.88;;
75772;SDS011;64381;0.000;0.000;2022-10-24T11:44:24;17.67;;;5.40;;
75772;SDS011;64381;0.000;0.000;2022-10-24T11:47:07;19.17;;;5.60;;
75772;SDS011;64381;0.000;0.000;2022-10-24T11:49:41;18.00;;;5.88;;
75772;SDS011;64381;0.000;0.000;2022-10-24T11:52:14;19.30;;;5.45;;
75772;SDS011;64381;0.000;0.000;2022-10-24T11:54:52;18.38;;;5.75;;
75772;SDS011;64381;0.000;0.000;2022-10-24T11:57:24;19.20;;;5.77;;
75772;SDS011;64381;0.000;0.000;2022-10-24T11:59:52;21.35;;;5.80;;
75772;SDS011;64381;0.000;0.000;2022-10-24T12:05:40;17.42;;;6.03;;
75772;SDS011;64381;0.000;0.000;2022-10-24T12:11:14;20.10;;;5.83;;
75772;SDS011;64381;0.000;0.000;2022-10-24T12:16:37;18.48;;;5.28;;
75772;SDS011;64381;0.000;0.000;2022-10-24T12:19:13;17.63;;;5.43;;
75772;SDS011;64381;0.000;0.000;2022-10-24T12:21:41;16.10;;;5.13;;
75772;SDS011;64381;0.000;0.000;2022-10-24T12:24:19;13.77;;;5.00;;
75772;SDS011;64381;0.000;0.000;2022-10-24T12:26:59;17.52;;;5.53;;
75772;SDS011;64381;0.000;0.000;2022-10-24T12:29:26;15.43;;;5.28;;
75772;SDS011;64381;0.000;0.000;2022-10-24T12:31:51;19.20;;;5.57;;
75772;SDS011;64381;0.000;0.000;2022-10-24T12:39:32;14.20;;;5.20;;
75772;SDS011;64381;0.000;0.000;2022-10-24T12:47:39;12.60;;;5.57;;
75772;SDS011;64381;0.000;0.000;2022-10-24T12:57:52;17.93;;;5.80;;
75772;SDS011;64381;0.000;0.000;2022-10-24T13:00:25;20.20;;;6.77;;
75772;SDS011;64381;0.000;0.000;2022-10-24T13:02:58;15.07;;;5.55;;
75772;SDS011;64381;0.000;0.000;2022-10-24T13:05:35;17.52;;;5.47;;
75772;SDS011;64381;0.000;0.000;2022-10-24T13:16:19;12.85;;;5.28;;
75772;SDS011;64381;0.000;0.000;2022-10-24T13:19:06;13.85;;;5.43;;
75772;SDS011;64381;0.000;0.000;2022-10-24T13:21:48;11.20;;;4.80;;
75772;SDS011;64381;0.000;0.000;2022-10-24T13:30:03;10.53;;;3.93;;
75772;SDS011;64381;0.000;0.000;2022-10-24T13:37:21;10.10;;;4.20;;
75772;SDS011;64381;0.000;0.000;2022-10-24T13:39:51;11.07;;;5.05;;
75772;SDS011;64381;0.000;0.000;2022-10-24T13:42:24;13.38;;;5.65;;
75772;SDS011;64381;0.000;0.000;2022-10-24T13:44:56;13.20;;;5.90;;
75772;SDS011;64381;0.000;0.000;2022-10-24T13:47:47;13.85;;;5.95;;
75772;SDS011;64381;0.000;0.000;2022-10-24T13:50:22;10.90;;;5.18;;
75772;SDS011;64381;0.000;0.000;2022-10-24T13:52:53;12.02;;;4.60;;
75772;SDS011;64381;0.000;0.000;2022-10-24T13:55:23;10.55;;;4.28;;
75772;SDS011;64381;0.000;0.000;2022-10-24T13:57:58;13.47;;;3.93;;
75772;SDS011;64381;0.000;0.000;2022-10-24T14:00:34;9.10;;;3.40;;
75772;SDS011;64381;0.000;0.000;2022-10-24T14:03:16;12.77;;;3.45;;
75772;SDS011;64381;0.000;0.000;2022-10-24T14:05:46;9.10;;;3.15;;
75772;SDS011;64381;0.000;0.000;2022-10-24T14:11:03;6.37;;;2.60;;
75772;SDS011;64381;0.000;0.000;2022-10-24T14:13:31;6.82;;;2.35;;
75772;SDS011;64381;0.000;0.000;2022-10-24T14:16:01;5.57;;;2.40;;
75772;SDS011;64381;0.000;0.000;2022-10-24T14:18:28;5.88;;;2.25;;
75772;SDS011;64381;0.000;0.000;2022-10-24T14:20:54;6.30;;;2.40;;
75772;SDS011;64381;0.000;0.000;2022-10-24T14:25:51;4.73;;;2.17;;
75772;SDS011;64381;0.000;0.000;2022-10-24T14:28:30;4.32;;;2.17;;
75772;SDS011;64381;0.000;0.000;2022-10-24T14:31:08;4.57;;;2.13;;
75772;SDS011;64381;0.000;0.000;2022-10-24T14:33:44;6.13;;;2.05;;
75772;SDS011;64381;0.000;0.000;2022-10-24T14:36:12;4.65;;;1.75;;
75772;SDS011;64381;0.000;0.000;2022-10-24T14:38:37;4.82;;;1.60;;
75772;SDS011;64381;0.000;0.000;2022-10-24T14:41:03;5.37;;;1.77;;
75772;SDS011;64381;0.000;0.000;2022-10-24T14:43:31;4.03;;;1.60;;
75772;SDS011;64381;0.000;0.000;2022-10-24T14:49:46;4.70;;;1.50;;
75772;SDS011;64381;0.000;0.000;2022-10-24T14:51:57;3.83;;;1.40;;
75772;SDS011;64381;0.000;0.000;2022-10-24T14:54:32;4.13;;;1.67;;
75772;SDS011;64381;0.000;0.000;2022-10-24T14:56:59;4.78;;;1.80;;
75772;SDS011;64381;0.000;0.000;2022-10-24T15:01:56;3.50;;;1.48;;
75772;SDS011;64381;0.000;0.000;2022-10-24T15:04:35;3.33;;;1.48;;
75772;SDS011;64381;0.000;0.000;2022-10-24T15:12:26;4.07;;;1.30;;
75772;SDS011;64381;0.000;0.000;2022-10-24T15:15:17;3.85;;;1.40;;
75772;SDS011;64381;0.000;0.000;2022-10-24T15:17:42;3.90;;;1.30;;
75772;SDS011;64381;0.000;0.000;2022-10-24T15:20:08;4.13;;;1.50;;
75772;SDS011;64381;0.000;0.000;2022-10-24T15:22:48;3.47;;;1.30;;
75772;SDS011;64381;0.000;0.000;2022-10-24T15:27:54;3.83;;;1.40;;
75772;SDS011;64381;0.000;0.000;2022-10-24T15:30:21;4.07;;;1.40;;
75772;SDS011;64381;0.000;0.000;2022-10-24T15:32:47;3.57;;;1.40;;
75772;SDS011;64381;0.000;0.000;2022-10-24T15:35:14;4.10;;;1.60;;
75772;SDS011;64381;0.000;0.000;2022-10-24T15:37:40;3.70;;;1.33;;
75772;SDS011;64381;0.000;0.000;2022-10-24T15:40:19;5.30;;;1.42;;
75772;SDS011;64381;0.000;0.000;2022-10-24T15:42:46;5.13;;;1.30;;
75772;SDS011;64381;0.000;0.000;2022-10-24T15:45:12;4.17;;;1.23;;
75772;SDS011;64381;0.000;0.000;2022-10-24T15:47:38;3.40;;;1.15;;
75772;SDS011;64381;0.000;0.000;2022-10-24T15:50:03;2.87;;;1.10;;
75772;SDS011;64381;0.000;0.000;2022-10-24T15:52:28;3.40;;;1.27;;
75772;SDS011;64381;0.000;0.000;2022-10-24T15:54:54;2.70;;;1.13;;
75772;SDS011;64381;0.000;0.000;2022-10-24T15:57:19;3.20;;;1.10;;
75772;SDS011;64381;0.000;0.000;2022-10-24T15:59:44;4.23;;;1.20;;
75772;SDS011;64381;0.000;0.000;2022-10-24T16:02:19;3.10;;;1.20;;
75772;SDS011;64381;0.000;0.000;2022-10-24T16:04:47;2.90;;;1.30;;
75772;SDS011;64381;0.000;0.000;2022-10-24T16:07:13;2.70;;;1.10;;
75772;SDS011;64381;0.000;0.000;2022-10-24T16:09:38;2.73;;;1.20;;
75772;SDS011;64381;0.000;0.000;2022-10-24T16:12:03;3.40;;;1.23;;
75772;SDS011;64381;0.000;0.000;2022-10-24T16:14:29;3.40;;;1.40;;
75772;SDS011;64381;0.000;0.000;2022-10-24T16:16:54;3.00;;;1.03;;
75772;SDS011;64381;0.000;0.000;2022-10-24T16:19:20;3.50;;;1.10;;
75772;SDS011;64381;0.000;0.000;2022-10-24T16:21:46;2.63;;;1.10;;
75772;SDS011;64381;0.000;0.000;2022-10-24T16:24:11;3.00;;;1.20;;
75772;SDS011;64381;0.000;0.000;2022-10-24T16:26:37;3.58;;;1.20;;
75772;SDS011;64381;0.000;0.000;2022-10-24T16:29:03;2.60;;;1.20;;
75772;SDS011;64381;0.000;0.000;2022-10-24T16:31:29;3.40;;;1.33;;
75772;SDS011;64381;0.000;0.000;2022-10-24T16:33:54;3.83;;;1.60;;
75772;SDS011;64381;0.000;0.000;2022-10-24T16:36:19;3.23;;;1.27;;
75772;SDS011;64381;0.000;0.000;2022-10-24T16:38:45;3.10;;;1.30;;
75772;SDS011;64381;0.000;0.000;2022-10-24T16:41:14;3.60;;;1.70;;
75772;SDS011;64381;0.000;0.000;2022-10-24T16:43:40;2.95;;;1.40;;
75772;SDS011;64381;0.000;0.000;2022-10-24T16:46:05;3.37;;;1.57;;
75772;SDS011;64381;0.000;0.000;2022-10-24T16:48:30;3.50;;;1.50;;
75772;SDS011;64381;0.000;0.000;2022-10-24T16:50:55;3.77;;;1.53;;
75772;SDS011;64381;0.000;0.000;2022-10-24T16:53:21;2.92;;;1.38;;
75772;SDS011;64381;0.000;0.000;2022-10-24T16:55:47;4.00;;;1.60;;
75772;SDS011;64381;0.000;0.000;2022-10-24T16:58:13;3.20;;;1.30;;
75772;SDS011;64381;0.000;0.000;2022-10-24T17:00:38;3.70;;;1.55;;
75772;SDS011;64381;0.000;0.000;2022-10-24T17:03:04;3.77;;;1.40;;
75772;SDS011;64381;0.000;0.000;2022-10-24T17:05:29;3.23;;;1.50;;
75772;SDS011;64381;0.000;0.000;2022-10-24T17:07:54;3.93;;;1.40;;
75772;SDS011;64381;0.000;0.000;2022-10-24T17:10:20;5.20;;;1.47;;
75772;SDS011;64381;0.000;0.000;2022-10-24T17:12:46;4.82;;;1.67;;
75772;SDS011;64381;0.000;0.000;2022-10-24T17:15:11;5.33;;;1.73;;
75772;SDS011;64381;0.000;0.000;2022-10-24T17:17:37;3.25;;;1.40;;
75772;SDS011;64381;0.000;0.000;2022-10-24T17:20:03;3.57;;;1.60;;
75772;SDS011;64381;0.000;0.000;2022-10-24T17:22:29;3.93;;;1.80;;
75772;SDS011;64381;0.000;0.000;2022-10-24T17:24:54;4.20;;;1.73;;
75772;SDS011;64381;0.000;0.000;2022-10-24T17:27:20;4.20;;;2.07;;
75772;SDS011;64381;0.000;0.000;2022-10-24T17:29:46;3.77;;;1.93;;
75772;SDS011;64381;0.000;0.000;2022-10-24T17:32:12;4.30;;;2.10;;
75772;SDS011;64381;0.000;0.000;2022-10-24T17:34:39;4.07;;;2.40;;
75772;SDS011;64381;0.000;0.000;2022-10-24T17:42:16;4.03;;;2.20;;
75772;SDS011;64381;0.000;0.000;2022-10-24T17:44:43;3.83;;;2.20;;
75772;SDS011;64381;0.000;0.000;2022-10-24T17:47:09;4.75;;;2.53;;
75772;SDS011;64381;0.000;0.000;2022-10-24T17:49:35;3.40;;;1.80;;